Time;durP1;ratioP1;P1;durP2;ratioP2;P2;SDS_P1;SDS_P2;PMS_P1;PMS_P2;Temp;Humidity;BMP_temperature;BMP_pressure;BME280_temperature;BME280_humidity;BME280_pressure;Samples;Min_cycle;Max_cycle;Signal;HPM_P1;HPM_P2
2021/08/30 00:01:35;;;;;;;15.20;8.70;;;;;;;19.90;73.41;99400.50;5031872;28;20045;-54
2021/08/30 00:04:00;;;;;;;17.52;8.43;;;;;;;19.98;73.19;99416.59;5038274;28;20055;-54
2021/08/30 00:06:27;;;;;;;17.38;8.82;;;;;;;19.99;73.12;99409.53;5033470;28;20041;-55
2021/08/30 00:08:52;;;;;;;16.92;8.45;;;;;;;19.92;73.21;99401.25;5032883;28;20052;-56
2021/08/30 00:11:18;;;;;;;15.38;9.02;;;;;;;20.01;73.25;99408.44;5031668;28;20539;-57
2021/08/30 00:13:47;;;;;;;24.42;8.35;;;;;;;20.02;72.94;99404.00;5030224;28;20040;-55
2021/08/30 00:16:13;;;;;;;;;;;;;;;20.00;72.97;99414.66;5032481;28;20136;-56
2021/08/30 00:18:40;;;;;;;19.48;8.93;;;;;;;19.98;72.81;99405.22;5031962;28;20027;-58
2021/08/30 00:21:05;;;;;;;17.77;8.55;;;;;;;19.96;72.83;99407.13;5031718;28;20521;-56
2021/08/30 00:23:31;;;;;;;20.67;9.55;;;;;;;19.83;72.85;99379.06;5032076;28;20045;-56
2021/08/30 00:25:57;;;;;;;13.18;8.35;;;;;;;19.78;73.14;99375.91;5032385;28;20042;-57
2021/08/30 00:28:23;;;;;;;17.80;8.45;;;;;;;19.87;73.27;99392.84;5031093;28;20501;-56
2021/08/30 00:30:49;;;;;;;13.10;8.07;;;;;;;19.81;73.32;99398.59;5032153;28;20147;-55
2021/08/30 00:33:15;;;;;;;14.95;8.10;;;;;;;19.75;73.45;99397.25;5030619;28;20513;-56
2021/08/30 00:35:41;;;;;;;15.35;8.23;;;;;;;19.72;73.47;99397.50;5029663;28;20037;-57
2021/08/30 00:38:07;;;;;;;14.10;8.75;;;;;;;19.68;73.71;99393.41;5062707;28;20116;-57
2021/08/30 00:40:36;;;;;;;17.23;8.82;;;;;;;19.64;73.96;99399.88;5031731;28;20041;-56
2021/08/30 00:43:03;;;;;;;17.90;8.65;;;;;;;19.60;74.03;99401.06;5031043;28;20047;-56
2021/08/30 00:45:28;;;;;;;13.45;8.27;;;;;;;19.59;74.08;99403.81;5030135;28;20492;-55
2021/08/30 00:47:55;;;;;;;15.48;8.85;;;;;;;19.57;74.15;99411.00;5031126;28;20069;-58
2021/08/30 00:50:21;;;;;;;16.48;8.57;;;;;;;19.47;74.23;99395.03;5030486;28;20060;-56
2021/08/30 00:52:47;;;;;;;12.02;8.20;;;;;;;19.42;74.27;99392.72;5032842;28;20516;-55
2021/08/30 00:55:13;;;;;;;15.13;8.07;;;;;;;19.50;74.32;99407.16;5043293;28;20044;-56
2021/08/30 00:57:39;;;;;;;16.75;9.88;;;;;;;19.47;74.87;99400.28;5030079;28;20047;-56
2021/08/30 01:00:07;;;;;;;19.80;10.02;;;;;;;19.45;75.09;99404.88;5031624;28;20045;-56
2021/08/30 01:02:36;;;;;;;21.02;9.27;;;;;;;19.34;75.46;99381.06;5030787;28;20072;-56
2021/08/30 01:05:03;;;;;;;14.57;8.38;;;;;;;19.32;75.42;99375.91;5038116;28;20036;-57
2021/08/30 01:07:41;;;;;;;16.60;8.75;;;;;;;19.38;75.66;99393.91;5032077;28;20091;-56
2021/08/30 01:10:19;;;;;;;17.15;9.07;;;;;;;19.36;75.67;99390.56;5031323;28;20115;-57
2021/08/30 01:12:56;;;;;;;16.33;8.93;;;;;;;19.33;75.75;99382.84;5029573;28;20053;-57
2021/08/30 01:15:51;;;;;;;16.60;8.85;;;;;;;19.30;75.94;99393.66;5025478;28;20041;-56
2021/08/30 01:18:22;;;;;;;15.70;8.48;;;;;;;19.29;75.83;99391.97;5029550;28;20057;-57
2021/08/30 01:21:02;;;;;;;18.02;8.65;;;;;;;19.25;75.89;99387.88;5030910;28;20048;-57
2021/08/30 01:23:29;;;;;;;18.85;9.05;;;;;;;19.22;76.24;99385.44;5029531;28;20038;-57
2021/08/30 01:25:58;;;;;;;17.27;8.70;;;;;;;19.18;76.57;99386.66;5014960;28;20448;-56
2021/08/30 01:28:25;;;;;;;16.27;8.63;;;;;;;19.15;76.97;99381.63;5030791;28;20046;-56
2021/08/30 01:30:54;;;;;;;14.23;9.13;;;;;;;19.03;77.26;99364.91;5028995;28;20041;-55
2021/08/30 01:33:22;;;;;;;16.25;9.70;;;;;;;19.11;77.37;99384.56;5032247;28;20045;-56
2021/08/30 01:35:48;;;;;;;19.42;8.88;;;;;;;19.10;77.65;99385.53;5029490;28;20034;-56
2021/08/30 01:38:14;;;;;;;16.98;9.05;;;;;;;19.07;77.76;99385.75;5028929;28;20041;-56
2021/08/30 01:40:41;;;;;;;21.85;9.10;;;;;;;19.04;78.04;99392.94;5013071;28;20048;-57
2021/08/30 01:43:07;;;;;;;15.13;8.43;;;;;;;18.94;78.27;99373.50;5031112;28;20052;-55
2021/08/30 01:45:35;;;;;;;15.50;9.27;;;;;;;19.01;78.26;99387.03;5033773;28;20130;-54
2021/08/30 01:48:04;;;;;;;20.30;9.77;;;;;;;19.00;78.52;99378.28;5034550;28;20061;-54
2021/08/30 01:50:31;;;;;;;21.98;10.07;;;;;;;18.99;78.49;99376.63;5029618;28;20038;-56
2021/08/30 01:52:59;;;;;;;20.35;9.77;;;;;;;18.98;78.63;99390.75;5029555;28;20037;-56
2021/08/30 02:00:48;;;;;;;20.77;9.88;;;;;;;18.90;79.27;99382.56;5038512;28;20052;-55
2021/08/30 02:03:25;;;;;;;21.70;10.05;;;;;;;18.86;79.83;99386.38;5028391;28;20038;-54
2021/08/30 02:06:02;;;;;;;20.35;9.55;;;;;;;18.73;79.78;99363.69;5029063;28;20120;-55
2021/08/30 02:08:29;;;;;;;24.75;11.57;;;;;;;18.77;80.09;99378.31;5034847;28;20041;-55
2021/08/30 02:11:02;;;;;;;20.70;11.27;;;;;;;18.69;80.09;99372.75;5027370;28;20580;-55
2021/08/30 02:13:29;;;;;;;21.38;10.98;;;;;;;18.73;80.20;99379.50;5029229;28;20065;-55
2021/08/30 02:15:59;;;;;;;17.20;10.70;;;;;;;18.63;80.47;99371.41;5044002;28;20048;-55
2021/08/30 02:18:42;;;;;;;24.73;12.23;;;;;;;18.67;80.62;99388.69;5030737;28;20076;-55
2021/08/30 02:21:15;;;;;;;24.52;11.50;;;;;;;18.57;80.48;99377.13;5030024;28;20467;-54
2021/08/30 02:23:47;;;;;;;25.80;13.25;;;;;;;18.64;80.49;99391.50;5034630;28;20420;-56
2021/08/30 02:26:17;;;;;;;25.13;11.85;;;;;;;18.63;80.49;99383.75;5026571;28;20155;-57
2021/08/30 02:28:46;;;;;;;25.80;13.27;;;;;;;18.62;80.69;99390.81;5028088;28;20175;-56
2021/08/30 02:31:12;;;;;;;32.28;13.32;;;;;;;18.61;80.94;99394.38;5027510;28;20052;-57
2021/08/30 02:33:38;;;;;;;34.25;13.18;;;;;;;18.60;80.86;99388.25;5027380;28;20515;-56
2021/08/30 02:36:04;;;;;;;28.52;13.82;;;;;;;18.61;80.95;99392.59;5027599;28;20037;-55
2021/08/30 02:38:32;;;;;;;28.38;12.88;;;;;;;18.65;81.09;99393.19;5027493;28;20095;-54
2021/08/30 02:40:58;;;;;;;33.00;13.48;;;;;;;18.70;80.94;99396.34;5027998;28;20041;-56
2021/08/30 02:43:24;;;;;;;27.77;12.80;;;;;;;18.76;80.87;99405.59;5028161;28;20088;-56
2021/08/30 02:45:50;;;;;;;30.50;14.00;;;;;;;18.83;80.48;99409.47;5029770;28;20049;-54
2021/08/30 02:48:16;;;;;;;30.10;13.05;;;;;;;18.82;79.95;99413.91;5034619;28;20049;-56
2021/08/30 02:50:42;;;;;;;32.95;13.68;;;;;;;18.91;79.74;99441.34;5041618;28;20041;-55
2021/08/30 02:53:07;;;;;;;29.83;13.35;;;;;;;18.79;80.21;99495.75;5027959;28;20064;-54
2021/08/30 02:55:33;;;;;;;33.20;14.90;;;;;;;18.63;81.21;99494.34;5016747;28;20136;-55
2021/08/30 02:58:00;;;;;;;30.00;14.55;;;;;;;18.56;81.13;99491.28;5029149;28;20041;-54
2021/08/30 03:00:26;;;;;;;32.60;14.20;;;;;;;18.50;80.92;99476.72;5032104;28;20044;-53
2021/08/30 03:02:52;;;;;;;36.15;14.13;;;;;;;18.62;80.60;99485.59;5028443;28;20037;-55
2021/08/30 03:05:18;;;;;;;32.88;13.85;;;;;;;18.68;80.40;99494.84;5029191;28;20056;-55
2021/08/30 03:07:44;;;;;;;31.63;13.80;;;;;;;18.77;79.98;99481.88;5036898;28;20508;-55
2021/08/30 03:10:10;;;;;;;23.10;12.27;;;;;;;18.90;79.38;99484.47;5032183;28;20888;-53
2021/08/30 03:12:42;;;;;;;26.67;12.25;;;;;;;18.84;78.79;99448.03;5044893;28;20088;-54
2021/08/30 03:15:12;;;;;;;24.58;11.95;;;;;;;18.92;78.71;99443.03;5033033;28;20147;-53
2021/08/30 03:17:42;;;;;;;28.35;13.18;;;;;;;19.15;78.83;99468.59;5033478;28;20037;-56
2021/08/30 03:20:10;;;;;;;24.65;12.00;;;;;;;19.23;78.69;99465.38;5031783;28;20037;-55
2021/08/30 03:22:36;;;;;;;29.83;12.57;;;;;;;19.28;78.49;99473.78;5041546;28;20045;-55
2021/08/30 03:25:03;;;;;;;31.83;13.25;;;;;;;19.33;78.50;99488.31;5013722;28;20037;-56
2021/08/30 03:27:30;;;;;;;22.13;11.25;;;;;;;19.30;78.54;99472.72;5032490;28;20041;-56
2021/08/30 03:29:57;;;;;;;21.83;11.02;;;;;;;19.40;77.89;99488.72;5030675;28;20037;-54
2021/08/30 03:32:23;;;;;;;25.08;12.35;;;;;;;19.31;77.99;99477.03;5030569;28;20099;-53
2021/08/30 03:34:49;;;;;;;25.23;11.57;;;;;;;19.37;78.15;99481.84;5030814;28;20048;-53
2021/08/30 03:37:15;;;;;;;23.75;11.18;;;;;;;19.33;78.68;99488.31;5031467;28;20397;-53
2021/08/30 03:39:42;;;;;;;19.17;10.25;;;;;;;19.32;78.68;99485.78;5035957;28;20047;-56
2021/08/30 03:42:08;;;;;;;21.63;10.02;;;;;;;19.27;79.04;99485.28;5044995;28;20120;-56
2021/08/30 03:44:35;;;;;;;21.20;10.50;;;;;;;19.26;79.38;99483.63;5031657;28;20600;-54
2021/08/30 03:47:01;;;;;;;25.60;9.93;;;;;;;19.25;80.10;99474.03;5032968;28;20043;-56
2021/08/30 03:49:28;;;;;;;21.67;10.15;;;;;;;19.26;80.40;99471.25;5029886;28;20459;-53
2021/08/30 03:51:54;;;;;;;17.58;10.13;;;;;;;19.13;83.49;99467.00;5031239;28;20094;-52
2021/08/30 03:54:20;;;;;;;21.90;9.90;;;;;;;18.81;87.55;99464.06;5032693;28;20037;-55
2021/08/30 03:56:47;;;;;;;21.95;11.15;;;;;;;18.56;92.23;99460.53;5039114;28;20080;-55
2021/08/30 03:59:15;;;;;;;24.48;11.80;;;;;;;18.36;97.04;99440.00;5040814;28;20079;-54
2021/08/30 04:01:43;;;;;;;24.43;13.53;;;;;;;18.30;100.00;99436.97;5031161;28;20063;-54
2021/08/30 04:04:14;;;;;;;32.00;13.25;;;;;;;18.30;100.00;99426.44;5031360;28;20041;-53
2021/08/30 04:06:41;;;;;;;26.85;15.30;;;;;;;18.31;100.00;99421.06;5031194;28;20672;-49
2021/08/30 04:09:07;;;;;;;33.55;14.13;;;;;;;18.17;100.00;99411.47;5038111;28;20153;-49
2021/08/30 04:11:33;;;;;;;36.80;15.80;;;;;;;18.29;100.00;99432.63;5032869;28;20053;-50
2021/08/30 04:13:59;;;;;;;25.23;14.13;;;;;;;18.28;100.00;99426.53;5030926;28;20112;-55
2021/08/30 04:16:25;;;;;;;27.33;13.88;;;;;;;18.30;100.00;99434.31;5032466;28;20049;-53
2021/08/30 04:18:51;;;;;;;29.75;14.70;;;;;;;18.32;100.00;99437.69;5032209;28;20417;-52
2021/08/30 04:21:17;;;;;;;25.58;15.57;;;;;;;18.34;100.00;99427.88;5029875;28;20049;-51
2021/08/30 04:23:42;;;;;;;32.75;16.92;;;;;;;18.36;100.00;99431.25;5030977;28;20048;-52
2021/08/30 04:26:08;;;;;;;31.02;14.63;;;;;;;18.39;100.00;99447.69;5031875;28;20044;-50
2021/08/30 04:28:34;;;;;;;26.85;15.30;;;;;;;18.38;100.00;99459.16;5031608;28;20056;-58
2021/08/30 04:30:59;;;;;;;27.90;15.13;;;;;;;18.40;100.00;99457.25;5031104;28;20080;-53
2021/08/30 04:33:25;;;;;;;29.30;14.77;;;;;;;18.44;100.00;99449.97;5030304;28;20056;-54
2021/08/30 04:35:51;;;;;;;28.92;15.57;;;;;;;18.46;100.00;99433.16;5030246;28;20034;-54
2021/08/30 04:38:17;;;;;;;30.02;15.10;;;;;;;18.50;100.00;99439.88;5032056;28;20567;-50
2021/08/30 04:40:43;;;;;;;27.15;15.50;;;;;;;18.51;100.00;99446.81;5031422;28;20453;-53
2021/08/30 04:43:10;;;;;;;30.20;15.15;;;;;;;18.53;100.00;99451.97;5032216;28;20044;-53
2021/08/30 04:45:37;;;;;;;29.75;15.27;;;;;;;18.53;100.00;99457.22;5030786;28;20041;-53
2021/08/30 04:48:04;;;;;;;27.83;16.67;;;;;;;18.54;100.00;99459.78;5031235;28;20037;-53
2021/08/30 04:50:30;;;;;;;28.23;16.25;;;;;;;18.57;100.00;99450.84;5033154;28;20143;-52
2021/08/30 04:52:55;;;;;;;29.00;16.05;;;;;;;18.56;100.00;99436.00;5045885;28;20568;-54
2021/08/30 04:55:21;;;;;;;28.65;16.05;;;;;;;18.65;100.00;99445.88;5042297;28;20128;-52
2021/08/30 04:57:47;;;;;;;31.52;15.60;;;;;;;18.72;100.00;99444.50;5031550;28;20468;-52
2021/08/30 05:00:13;;;;;;;25.05;15.82;;;;;;;18.68;100.00;99427.22;5031241;28;20063;-54
2021/08/30 05:02:39;;;;;;;22.92;14.93;;;;;;;18.78;100.00;99430.88;5030713;28;20039;-53
2021/08/30 05:05:05;;;;;;;25.42;15.27;;;;;;;18.85;100.00;99442.63;5031217;28;20038;-52
2021/08/30 05:07:31;;;;;;;29.80;16.08;;;;;;;18.82;100.00;99423.59;5040456;28;20036;-55
2021/08/30 05:09:57;;;;;;;25.38;15.30;;;;;;;18.98;100.00;99442.59;5037110;28;20068;-53
2021/08/30 05:12:26;;;;;;;33.25;17.17;;;;;;;19.01;100.00;99424.78;5030795;28;20408;-53
2021/08/30 05:14:53;;;;;;;27.77;15.90;;;;;;;19.16;100.00;99433.34;5030365;28;20128;-55
2021/08/30 05:17:19;;;;;;;25.67;16.67;;;;;;;19.25;100.00;99434.47;5030941;28;20092;-56
2021/08/30 05:19:44;;;;;;;23.90;14.50;;;;;;;19.34;100.00;99428.53;5030860;28;20049;-56
2021/08/30 05:22:13;;;;;;;28.00;15.48;;;;;;;19.42;100.00;99415.59;5029619;28;20072;-57
2021/08/30 05:24:40;;;;;;;33.47;16.30;;;;;;;19.47;100.00;99413.47;5039263;28;20083;-57
2021/08/30 05:27:06;;;;;;;32.90;18.40;;;;;;;19.52;100.00;99416.66;5038396;28;20386;-57
2021/08/30 05:29:32;;;;;;;50.45;32.92;;;;;;;19.44;100.00;99395.22;5030064;28;20092;-57
2021/08/30 05:31:58;;;;;;;45.92;28.85;;;;;;;19.52;100.00;99410.53;5046438;28;20037;-56
2021/08/30 05:34:24;;;;;;;32.15;19.20;;;;;;;19.51;100.00;99398.28;5030380;28;20523;-56
2021/08/30 05:36:49;;;;;;;34.97;19.13;;;;;;;19.54;100.00;99384.84;5029846;28;20049;-57
2021/08/30 05:39:15;;;;;;;33.35;17.88;;;;;;;19.53;100.00;99384.03;5031057;28;20083;-56
2021/08/30 05:41:41;;;;;;;31.20;18.10;;;;;;;19.63;100.00;99394.69;5029623;28;20045;-57
2021/08/30 05:44:10;;;;;;;30.00;16.98;;;;;;;19.64;100.00;99399.03;5029615;28;20047;-57
2021/08/30 05:46:35;;;;;;;33.40;16.75;;;;;;;19.61;100.00;99394.84;5030498;28;20545;-57
2021/08/30 05:49:02;;;;;;;32.45;17.00;;;;;;;19.73;100.00;99412.34;5048809;28;20143;-56
2021/08/30 05:51:28;;;;;;;30.00;16.70;;;;;;;19.80;100.00;99402.19;5035947;28;20075;-57
2021/08/30 05:53:54;;;;;;;42.38;19.40;;;;;;;19.82;100.00;99416.94;5060076;28;20067;-58
2021/08/30 05:56:19;;;;;;;44.55;20.10;;;;;;;19.84;100.00;99414.16;5052649;28;20576;-59
2021/08/30 05:58:45;;;;;;;30.33;17.42;;;;;;;19.84;100.00;99420.28;5054580;28;20033;-58
2021/08/30 06:01:11;;;;;;;39.45;18.63;;;;;;;19.87;100.00;99429.78;5042073;28;20523;-58
2021/08/30 06:03:37;;;;;;;28.80;15.95;;;;;;;19.87;100.00;99430.63;5046765;28;20071;-57
2021/08/30 06:06:03;;;;;;;37.60;18.20;;;;;;;19.78;100.00;99412.84;5045362;28;20037;-57
2021/08/30 06:08:29;;;;;;;33.13;19.40;;;;;;;19.81;100.00;99417.06;5031317;28;20095;-53
2021/08/30 06:10:57;;;;;;;30.23;17.23;;;;;;;19.70;100.00;99396.78;5029071;28;20048;-54
2021/08/30 06:13:23;;;;;;;33.78;18.05;;;;;;;19.91;100.00;99427.75;5035256;28;20440;-53
2021/08/30 06:15:49;;;;;;;30.08;16.73;;;;;;;19.93;99.65;99439.88;5036734;28;20086;-54
2021/08/30 06:18:15;;;;;;;35.13;18.20;;;;;;;19.91;99.46;99440.94;5043330;28;20078;-57
2021/08/30 06:20:40;;;;;;;33.05;17.52;;;;;;;19.71;99.91;99429.25;5029398;28;20053;-54
2021/08/30 06:23:06;;;;;;;27.50;17.17;;;;;;;19.82;99.51;99453.03;5028970;28;20047;-54
2021/08/30 06:25:32;;;;;;;26.70;16.30;;;;;;;19.74;98.06;99448.34;5030157;28;20056;-55
2021/08/30 06:27:58;;;;;;;22.30;14.00;;;;;;;19.76;96.82;99449.06;5027840;28;20033;-57
2021/08/30 06:30:24;;;;;;;27.40;15.98;;;;;;;19.96;95.20;99460.75;5030516;28;20041;-59
2021/08/30 06:32:50;;;;;;;31.70;16.77;;;;;;;20.10;93.94;99464.94;5029360;28;20512;-54
2021/08/30 06:35:15;;;;;;;26.40;15.52;;;;;;;20.23;92.54;99468.34;5060718;28;20066;-58
2021/08/30 06:37:42;;;;;;;28.10;15.60;;;;;;;20.38;90.92;99466.31;5029182;28;20128;-58
2021/08/30 06:40:11;;;;;;;30.13;17.42;;;;;;;20.52;90.27;99460.78;5029569;28;20041;-58
2021/08/30 06:42:37;;;;;;;26.38;16.70;;;;;;;20.63;89.49;99474.00;5038941;28;20103;-58
2021/08/30 06:45:04;;;;;;;25.25;14.55;;;;;;;20.66;88.84;99461.41;5030677;28;20040;-57
2021/08/30 06:47:30;;;;;;;28.05;15.70;;;;;;;20.81;88.65;99475.19;5043958;28;20037;-59
2021/08/30 06:49:55;;;;;;;27.42;15.35;;;;;;;20.71;88.24;99453.13;5027669;28;20037;-58
2021/08/30 06:52:21;;;;;;;28.52;15.30;;;;;;;20.89;87.64;99469.28;5027624;28;20513;-59
2021/08/30 06:54:48;;;;;;;34.38;16.25;;;;;;;20.96;86.91;99473.13;5029122;28;20045;-57
2021/08/30 06:57:13;;;;;;;30.70;16.52;;;;;;;21.10;86.04;99480.78;5035508;28;20044;-56
2021/08/30 06:59:39;;;;;;;26.60;15.63;;;;;;;21.16;84.86;99469.75;5030749;28;20410;-56
2021/08/30 07:02:05;;;;;;;23.65;14.93;;;;;;;21.13;84.30;99464.69;5032497;28;20045;-53
2021/08/30 07:04:31;;;;;;;31.63;15.80;;;;;;;21.03;84.58;99463.75;5045861;28;20041;-52
2021/08/30 07:06:57;;;;;;;24.33;15.07;;;;;;;20.91;85.07;99464.72;5038868;28;20083;-54
2021/08/30 07:09:24;;;;;;;27.80;15.20;;;;;;;20.86;85.11;99469.53;5019347;28;20045;-53
2021/08/30 07:11:50;;;;;;;25.75;15.80;;;;;;;20.85;85.01;99470.50;5040034;28;20461;-53
2021/08/30 07:14:16;;;;;;;23.20;14.73;;;;;;;20.83;84.31;99475.09;5041289;28;20040;-54
2021/08/30 07:16:43;;;;;;;25.25;15.32;;;;;;;20.76;84.27;99460.66;5036116;28;20037;-56
2021/08/30 07:19:09;;;;;;;22.77;13.68;;;;;;;20.83;84.32;99475.09;5032410;28;20500;-53
2021/08/30 07:21:35;;;;;;;26.55;15.57;;;;;;;20.82;84.73;99473.41;5047910;28;20048;-54
2021/08/30 07:24:01;;;;;;;26.63;15.88;;;;;;;20.87;84.42;99476.50;5044831;28;20119;-47
2021/08/30 07:26:27;;;;;;;23.00;14.40;;;;;;;20.94;83.36;99475.88;5045751;28;20068;-54
2021/08/30 07:28:53;;;;;;;21.98;15.15;;;;;;;20.97;82.91;99477.47;5030885;28;20041;-50
2021/08/30 07:31:19;;;;;;;27.80;14.63;;;;;;;20.99;82.77;99479.00;5043787;28;20543;-50
2021/08/30 07:33:44;;;;;;;25.90;16.35;;;;;;;21.01;82.95;99486.81;5043590;28;20041;-49
2021/08/30 07:36:10;;;;;;;28.98;16.25;;;;;;;21.03;83.29;99484.91;5041990;28;20461;-49
2021/08/30 07:38:36;;;;;;;27.30;15.27;;;;;;;21.03;83.49;99485.75;5036640;28;20564;-52
2021/08/30 07:41:02;;;;;;;43.35;29.40;;;;;;;21.00;83.53;99485.97;5044972;28;20156;-52
2021/08/30 07:43:28;;;;;;;37.00;21.58;;;;;;;21.05;83.43;99493.53;5047980;28;20037;-49
2021/08/30 07:45:53;;;;;;;33.50;18.05;;;;;;;21.06;83.43;99488.13;5042279;28;20068;-49
2021/08/30 07:48:19;;;;;;;31.38;16.20;;;;;;;21.12;83.25;99489.44;5040548;28;20119;-56
2021/08/30 07:50:45;;;;;;;42.97;23.17;;;;;;;21.19;82.94;99481.88;5046792;28;20068;-50
2021/08/30 07:53:11;;;;;;;29.17;18.05;;;;;;;21.23;82.43;99480.66;5044104;28;20107;-50
2021/08/30 07:55:37;;;;;;;29.42;17.85;;;;;;;21.28;82.03;99486.41;5049824;28;20045;-46
2021/08/30 07:58:03;;;;;;;32.65;19.83;;;;;;;21.40;81.66;99488.06;5033752;28;20095;-52
2021/08/30 08:00:29;;;;;;;42.17;24.52;;;;;;;21.49;81.18;99498.72;5034509;28;20091;-48
2021/08/30 08:02:55;;;;;;;28.83;18.67;;;;;;;21.52;81.06;99500.28;5044782;28;20048;-50
2021/08/30 08:05:20;;;;;;;28.30;16.88;;;;;;;21.50;81.04;99500.41;5043891;28;20527;-49
2021/08/30 08:07:46;;;;;;;35.40;18.40;;;;;;;21.51;81.32;99496.78;5048291;28;20044;-46
2021/08/30 08:10:12;;;;;;;38.53;18.65;;;;;;;21.57;81.14;99482.22;5050204;28;21010;-46
2021/08/30 08:12:40;;;;;;;47.87;28.30;;;;;;;21.68;80.90;99478.66;5048659;28;20834;-48
2021/08/30 08:15:06;;;;;;;27.23;16.92;;;;;;;21.78;80.31;99483.06;5046429;28;20291;-48
2021/08/30 08:17:34;;;;;;;27.13;17.10;;;;;;;21.87;79.80;99489.41;5044718;28;20048;-50
2021/08/30 08:20:00;;;;;;;30.10;18.35;;;;;;;21.96;79.13;99480.72;5045548;28;20041;-48
2021/08/30 08:22:30;;;;;;;38.05;20.55;;;;;;;22.06;78.07;99475.50;5051035;28;20123;-48
2021/08/30 08:24:58;;;;;;;31.30;18.63;;;;;;;22.17;77.31;99478.91;5050817;28;20036;-49
2021/08/30 08:27:25;;;;;;;33.20;23.25;;;;;;;22.27;76.70;99477.16;5033669;28;20048;-49
2021/08/30 08:29:50;;;;;;;28.15;19.00;;;;;;;22.43;75.64;99462.56;5048511;28;20098;-50
2021/08/30 08:32:16;;;;;;;28.88;18.30;;;;;;;22.70;74.31;99454.88;5050813;28;20148;-47
2021/08/30 08:34:42;;;;;;;37.03;22.52;;;;;;;23.32;71.34;99467.03;5051053;28;20918;-48
2021/08/30 08:37:08;;;;;;;26.13;15.98;;;;;;;24.75;65.45;99473.91;5047839;28;20043;-47
2021/08/30 08:39:35;;;;;;;33.55;21.95;;;;;;;25.83;61.66;99465.03;5046332;28;20082;-49
2021/08/30 08:42:01;;;;;;;24.80;13.63;;;;;;;26.26;58.61;99469.53;5046878;28;20041;-51
2021/08/30 08:44:27;;;;;;;23.48;15.15;;;;;;;25.46;59.40;99455.38;5050658;28;20098;-47
2021/08/30 08:46:53;;;;;;;28.13;17.65;;;;;;;25.03;60.21;99468.59;5048291;28;20475;-49
2021/08/30 08:49:19;;;;;;;25.80;15.57;;;;;;;24.87;60.78;99464.75;5046570;28;20072;-47
2021/08/30 08:51:46;;;;;;;20.92;14.90;;;;;;;24.77;61.20;99463.94;5048676;28;21488;-48
2021/08/30 08:54:13;;;;;;;29.08;18.00;;;;;;;24.61;61.60;99444.28;5031801;28;20513;-46
2021/08/30 08:56:38;;;;;;;29.05;17.08;;;;;;;24.68;62.15;99448.06;5049482;28;20045;-48
2021/08/30 08:59:04;;;;;;;24.63;17.15;;;;;;;24.70;62.45;99435.47;5047043;28;20433;-46
2021/08/30 09:01:31;;;;;;;29.17;18.92;;;;;;;24.77;62.71;99434.69;5047171;28;20098;-45
2021/08/30 09:03:57;;;;;;;26.77;18.33;;;;;;;25.07;61.81;99440.72;5046375;28;20418;-45
2021/08/30 09:06:34;;;;;;;24.10;15.25;;;;;;;25.87;58.75;99429.94;5046970;28;20036;-48
2021/08/30 09:09:01;;;;;;;21.42;15.50;;;;;;;26.44;57.06;99430.31;5049753;28;20051;-50
2021/08/30 09:11:39;;;;;;;21.73;13.98;;;;;;;26.64;56.53;99426.38;5048722;28;20088;-52
2021/08/30 09:14:15;;;;;;;22.83;15.40;;;;;;;26.40;57.06;99429.78;5048295;28;20122;-52
2021/08/30 09:16:41;;;;;;;23.60;15.13;;;;;;;26.01;58.21;99425.91;5046384;28;20423;-49
2021/08/30 09:19:08;;;;;;;20.83;14.32;;;;;;;25.88;58.80;99444.94;5047876;28;20041;-49
2021/08/30 09:21:42;;;;;;;25.75;15.18;;;;;;;26.67;56.51;99426.06;5045559;28;20052;-47
2021/08/30 09:24:19;;;;;;;20.08;13.32;;;;;;;27.83;52.98;99433.13;5042689;28;20483;-49
2021/08/30 09:26:47;;;;;;;24.10;14.88;;;;;;;29.32;49.51;99435.75;5047120;28;20064;-46
2021/08/30 09:29:16;;;;;;;21.45;13.95;;;;;;;29.12;48.86;99445.22;5047899;28;20032;-48
2021/08/30 09:31:42;;;;;;;;;;;;;;;28.47;50.52;99442.03;5048550;28;20530;-46
2021/08/30 09:34:11;;;;;;;28.73;15.82;;;;;;;27.65;51.38;99435.97;5043834;28;19916;-59
2021/08/30 09:36:45;;;;;;;28.42;17.23;;;;;;;27.50;51.79;99431.47;5037944;28;20051;-57
2021/08/30 09:39:11;;;;;;;23.60;14.43;;;;;;;28.46;49.17;99419.78;5037231;28;20087;-58
2021/08/30 09:41:41;;;;;;;27.83;16.23;;;;;;;28.91;48.35;99424.44;5042180;28;20088;-58
2021/08/30 09:44:08;;;;;;;24.08;15.52;;;;;;;30.39;44.99;99425.72;5047053;28;20523;-53
2021/08/30 09:46:34;;;;;;;26.33;16.60;;;;;;;31.46;42.75;99428.47;5048291;28;20052;-58
2021/08/30 09:49:07;;;;;;;27.02;16.77;;;;;;;32.04;41.40;99434.53;5043305;28;20045;-55
2021/08/30 09:51:37;;;;;;;22.40;15.32;;;;;;;31.82;41.35;99430.25;5040500;28;20058;-55
2021/08/30 09:54:03;;;;;;;23.70;15.25;;;;;;;32.57;39.39;99426.81;5046517;28;20040;-54
2021/08/30 09:56:32;;;;;;;23.05;15.52;;;;;;;33.42;37.65;99439.75;5033724;28;20518;-58
2021/08/30 09:58:59;;;;;;;27.42;15.70;;;;;;;33.63;37.78;99432.31;5029336;28;20052;-56
2021/08/30 10:01:25;;;;;;;21.95;14.82;;;;;;;33.83;36.36;99420.72;5037500;28;20047;-57
2021/08/30 10:03:50;;;;;;;23.45;15.57;;;;;;;33.09;37.84;99435.09;5038355;28;20064;-57
2021/08/30 10:06:17;;;;;;;23.00;16.60;;;;;;;31.60;40.23;99423.25;5027822;28;20689;-55
2021/08/30 10:08:43;;;;;;;23.90;15.27;;;;;;;30.94;41.20;99422.50;5046652;28;20432;-51
2021/08/30 10:11:09;;;;;;;21.20;16.30;;;;;;;30.75;42.41;99425.81;5047765;28;20074;-53
2021/08/30 10:13:35;;;;;;;25.35;14.93;;;;;;;30.01;43.24;99420.44;5044144;28;20140;-51
2021/08/30 10:16:01;;;;;;;22.05;15.80;;;;;;;29.50;45.07;99424.75;5047480;28;20047;-52
2021/08/30 10:18:27;;;;;;;30.92;17.20;;;;;;;29.11;45.98;99432.00;5050678;28;20064;-51
2021/08/30 10:20:54;;;;;;;22.88;15.65;;;;;;;28.46;46.98;99438.53;5055053;28;20077;-56
2021/08/30 10:23:21;;;;;;;25.30;15.93;;;;;;;27.74;48.86;99439.50;5046173;28;20048;-55
2021/08/30 10:26:00;;;;;;;27.08;15.88;;;;;;;27.22;50.61;99447.75;5044194;28;20052;-61
2021/08/30 10:28:56;;;;;;;;;;;;;;;27.00;51.15;99443.06;5031290;28;20048;-62
2021/08/30 10:31:25;;;;;;;22.27;14.50;;;;;;;26.98;51.70;99453.88;5033487;28;20013;-61
2021/08/30 10:33:54;;;;;;;24.48;14.70;;;;;;;26.93;51.45;99444.69;5030007;28;20044;-61
2021/08/30 10:36:22;;;;;;;23.00;14.73;;;;;;;26.71;52.14;99448.75;5030775;28;20041;-62
2021/08/30 10:39:08;;;;;;;25.20;15.32;;;;;;;26.30;53.44;99453.06;5041789;28;20034;-62
2021/08/30 10:41:36;;;;;;;26.85;15.63;;;;;;;25.96;54.82;99447.66;5036235;28;20504;-61
2021/08/30 10:44:06;;;;;;;28.30;15.60;;;;;;;25.72;55.32;99443.00;5041729;28;20041;-62
2021/08/30 10:46:43;;;;;;;26.40;15.00;;;;;;;25.59;56.04;99442.53;5036212;28;20037;-62
2021/08/30 10:49:35;;;;;;;25.35;16.20;;;;;;;25.52;56.72;99446.78;5039765;28;20068;-61
2021/08/30 10:52:12;;;;;;;25.02;14.30;;;;;;;25.45;57.37;99447.56;5035664;28;20049;-64
2021/08/30 10:54:49;;;;;;;25.45;14.55;;;;;;;25.37;57.91;99444.81;5047741;28;20037;-61
2021/08/30 10:57:15;;;;;;;22.85;14.05;;;;;;;25.23;59.00;99444.34;5035238;28;20079;-62
2021/08/30 10:59:47;;;;;;;25.60;13.95;;;;;;;25.04;59.63;99433.03;5039982;28;20499;-62
2021/08/30 11:02:12;;;;;;;27.38;14.88;;;;;;;25.07;60.31;99446.03;5040854;28;20455;-62
2021/08/30 11:04:41;;;;;;;21.15;12.98;;;;;;;24.93;60.72;99430.56;5037294;28;20052;-62
2021/08/30 11:07:07;;;;;;;27.03;13.67;;;;;;;24.87;61.68;99435.50;5037429;28;20052;-61
2021/08/30 11:09:42;;;;;;;28.20;14.50;;;;;;;24.98;61.57;99437.13;5044711;28;20291;-62
2021/08/30 11:12:12;;;;;;;23.58;14.68;;;;;;;24.95;61.99;99426.78;5038312;28;20060;-61
2021/08/30 11:14:38;;;;;;;28.88;15.80;;;;;;;24.99;62.15;99441.47;5015045;28;20033;-63
2021/08/30 11:17:05;;;;;;;21.70;15.38;;;;;;;24.82;62.12;99418.28;5029214;28;20110;-62
2021/08/30 11:19:31;;;;;;;25.67;15.93;;;;;;;25.05;62.16;99440.03;5030622;28;20033;-61
2021/08/30 11:22:00;;;;;;;26.23;14.52;;;;;;;25.54;60.84;99446.66;5028633;28;20436;-62
2021/08/30 11:24:37;;;;;;;22.67;14.00;;;;;;;26.59;58.45;99442.03;5030891;28;20575;-62